createdAt,value
2017-10-31T00:01:17.910Z,99.68
2017-10-31T00:03:45.452Z,99.62
2017-10-31T00:06:12.980Z,99.62
2017-10-31T00:08:40.535Z,99.83
2017-10-31T00:11:09.330Z,99.83
2017-10-31T00:13:36.877Z,99.54
2017-10-31T00:16:04.422Z,99.40
2017-10-31T00:18:31.913Z,99.47
2017-10-31T00:20:59.447Z,99.54
2017-10-31T00:23:26.973Z,99.42
2017-10-31T00:25:54.493Z,99.46
2017-10-31T00:28:21.982Z,99.35
2017-10-31T00:30:49.497Z,99.09
2017-10-31T00:33:17.006Z,98.77
2017-10-31T00:35:44.515Z,99.06
2017-10-31T00:38:12.373Z,99.25
2017-10-31T00:40:39.901Z,99.46
2017-10-31T00:43:07.429Z,99.17
2017-10-31T00:45:34.961Z,99.36
2017-10-31T00:48:02.469Z,99.61
2017-10-31T00:50:29.990Z,99.53
2017-10-31T00:52:57.529Z,99.20
2017-10-31T00:55:25.021Z,99.13
2017-10-31T00:57:52.521Z,99.14
2017-10-31T01:00:20.014Z,99.05
2017-10-31T01:02:47.522Z,99.17
2017-10-31T01:05:15.029Z,99.28
2017-10-31T01:07:42.532Z,99.30
2017-10-31T01:10:10.030Z,99.43
2017-10-31T01:12:37.526Z,99.56
2017-10-31T01:15:05.014Z,99.29
2017-10-31T01:17:32.518Z,98.94
2017-10-31T01:20:00.025Z,99.25
2017-10-31T01:22:27.536Z,99.42
2017-10-31T01:24:55.040Z,99.52
2017-10-31T01:27:22.548Z,99.58
2017-10-31T01:29:50.063Z,99.51
2017-10-31T01:32:17.631Z,99.62
2017-10-31T01:34:45.132Z,99.69
2017-10-31T01:37:12.645Z,99.88
2017-10-31T01:39:40.147Z,99.90
2017-10-31T01:42:07.652Z,99.62
2017-10-31T01:44:35.149Z,99.62
2017-10-31T01:47:02.667Z,99.77
2017-10-31T01:49:30.190Z,99.79
2017-10-31T01:51:57.688Z,99.37
2017-10-31T01:54:25.224Z,99.27
2017-10-31T01:56:53.653Z,99.24
2017-10-31T01:59:21.153Z,99.23
2017-10-31T02:01:48.661Z,98.96
2017-10-31T02:04:16.175Z,99.25
2017-10-31T02:06:43.700Z,99.27
2017-10-31T02:09:11.206Z,99.29
2017-10-31T02:11:38.809Z,99.32
2017-10-31T02:14:06.307Z,99.55
2017-10-31T02:16:33.819Z,99.57
2017-10-31T02:19:01.347Z,99.52
2017-10-31T02:21:28.857Z,99.56
2017-10-31T02:23:56.373Z,99.50
2017-10-31T02:26:23.878Z,99.30
2017-10-31T02:28:51.395Z,98.81
2017-10-31T02:31:18.895Z,98.41
2017-10-31T02:33:46.399Z,98.51
2017-10-31T02:36:13.906Z,98.36
2017-10-31T02:38:53.441Z,98.18
2017-10-31T02:41:20.978Z,98.55
2017-10-31T02:43:48.490Z,98.59
2017-10-31T02:46:16.008Z,98.55
2017-10-31T02:48:43.498Z,98.49
2017-10-31T02:51:11.006Z,98.47
2017-10-31T02:53:38.587Z,98.48
2017-10-31T02:56:06.095Z,98.57
2017-10-31T02:58:33.640Z,98.74
2017-10-31T03:01:01.127Z,98.52
2017-10-31T03:03:28.627Z,98.69
2017-10-31T03:05:56.123Z,99.03
2017-10-31T03:08:23.618Z,98.79
2017-10-31T03:10:51.155Z,98.69
2017-10-31T03:13:18.642Z,98.36
2017-10-31T03:15:46.154Z,98.54
2017-10-31T03:18:13.665Z,98.86
2017-10-31T03:20:41.179Z,98.30
2017-10-31T03:23:09.147Z,98.21
2017-10-31T03:25:36.649Z,98.67
2017-10-31T03:28:04.182Z,98.90
2017-10-31T03:30:31.699Z,98.82
2017-10-31T03:32:59.205Z,98.39
2017-10-31T03:35:26.694Z,98.16
2017-10-31T03:37:54.190Z,98.36
2017-10-31T03:40:21.703Z,98.51
2017-10-31T03:42:49.210Z,98.35
2017-10-31T03:45:16.722Z,98.42
2017-10-31T03:47:44.231Z,98.13
2017-10-31T03:50:11.738Z,98.17
2017-10-31T03:52:39.242Z,98.53
2017-10-31T03:55:06.765Z,98.48
2017-10-31T03:57:34.251Z,97.72
2017-10-31T04:00:01.767Z,97.30
2017-10-31T04:02:29.295Z,98.35
2017-10-31T04:04:56.810Z,98.54
2017-10-31T04:07:24.313Z,98.54
2017-10-31T04:09:51.814Z,98.09
2017-10-31T04:12:19.474Z,97.98
2017-10-31T04:14:46.979Z,98.40
2017-10-31T04:17:14.595Z,98.39
2017-10-31T04:19:42.110Z,98.20
2017-10-31T04:22:09.617Z,98.21
2017-10-31T04:24:37.148Z,98.43
2017-10-31T04:27:04.668Z,98.20
2017-10-31T04:29:32.155Z,98.14
2017-10-31T04:31:59.671Z,98.08
2017-10-31T04:34:27.174Z,98.08
2017-10-31T04:36:54.695Z,97.94
2017-10-31T04:39:22.194Z,97.70
2017-10-31T04:41:49.722Z,97.41
2017-10-31T04:44:17.241Z,97.80
2017-10-31T04:46:44.738Z,98.23
2017-10-31T04:49:12.269Z,98.18
2017-10-31T04:51:39.789Z,98.42
2017-10-31T04:54:07.294Z,98.56
2017-10-31T04:56:34.809Z,98.20
2017-10-31T04:59:02.355Z,98.09
2017-10-31T05:01:29.870Z,98.42
2017-10-31T05:03:57.385Z,98.76
2017-10-31T05:06:24.901Z,98.81
2017-10-31T05:08:52.414Z,98.49
2017-10-31T05:11:19.910Z,98.70
2017-10-31T05:13:47.424Z,98.64
2017-10-31T05:16:14.938Z,98.58
2017-10-31T05:18:42.466Z,98.61
2017-10-31T05:21:09.981Z,98.50
2017-10-31T05:23:37.549Z,98.90
2017-10-31T05:26:05.065Z,98.31
2017-10-31T05:28:32.578Z,98.33
2017-10-31T05:31:00.095Z,98.30
2017-10-31T05:33:27.603Z,98.06
2017-10-31T05:35:55.123Z,98.14
2017-10-31T05:38:22.636Z,97.96
2017-10-31T05:40:50.146Z,98.15
2017-10-31T05:43:17.674Z,98.15
2017-10-31T05:45:45.198Z,98.32
2017-10-31T05:48:12.750Z,98.62
2017-10-31T05:50:40.244Z,98.71
2017-10-31T05:53:07.761Z,98.78
2017-10-31T05:55:35.276Z,98.83
2017-10-31T05:58:02.784Z,98.31
2017-10-31T06:00:30.402Z,98.13
2017-10-31T06:02:57.913Z,98.51
2017-10-31T06:05:25.429Z,98.11
2017-10-31T06:07:52.946Z,97.88
2017-10-31T06:10:20.440Z,98.43
2017-10-31T06:12:47.957Z,98.11
2017-10-31T06:15:15.456Z,97.52
2017-10-31T06:17:42.957Z,97.67
2017-10-31T06:20:10.458Z,98.11
2017-10-31T06:25:47.773Z,98.41
2017-10-31T06:28:20.850Z,98.54
2017-10-31T06:30:54.050Z,98.61
2017-10-31T06:33:21.553Z,98.31
2017-10-31T06:35:49.081Z,97.97
2017-10-31T06:38:16.595Z,98.00
2017-10-31T06:40:44.106Z,98.14
2017-10-31T06:43:11.625Z,98.29
2017-10-31T06:45:39.141Z,98.37
2017-10-31T06:48:06.689Z,98.33
2017-10-31T06:50:34.193Z,98.23
2017-10-31T06:53:01.689Z,98.19
2017-10-31T06:55:29.222Z,97.78
2017-10-31T06:57:56.743Z,97.77
2017-10-31T07:00:24.267Z,97.64
2017-10-31T07:02:51.784Z,97.88
2017-10-31T07:05:19.327Z,97.48
2017-10-31T07:07:46.856Z,96.82
2017-10-31T07:10:14.362Z,96.23
2017-10-31T07:12:41.871Z,95.92
2017-10-31T07:15:09.365Z,96.14
2017-10-31T07:17:36.878Z,96.06
2017-10-31T07:20:04.427Z,96.13
2017-10-31T07:22:31.946Z,96.61
2017-10-31T07:24:59.467Z,96.52
2017-10-31T07:27:26.986Z,96.09
2017-10-31T07:29:54.492Z,96.46
2017-10-31T07:32:21.999Z,96.35
2017-10-31T07:34:49.526Z,96.55
2017-10-31T07:37:17.045Z,97.07
2017-10-31T07:39:44.541Z,95.57
2017-10-31T07:42:12.034Z,94.84
2017-10-31T07:44:39.539Z,95.64
2017-10-31T07:47:07.035Z,93.44
2017-10-31T07:49:34.524Z,91.39
2017-10-31T07:52:02.017Z,88.88
2017-10-31T07:54:29.510Z,88.53
2017-10-31T07:56:57.002Z,84.41
2017-10-31T07:59:24.503Z,80.71
2017-10-31T08:01:52.008Z,81.13
2017-10-31T08:04:19.514Z,69.12
2017-10-31T08:06:47.025Z,67.38
2017-10-31T08:09:14.544Z,65.90
2017-10-31T08:11:42.047Z,54.41
2017-10-31T08:14:09.557Z,54.16
2017-10-31T08:16:37.056Z,52.37
2017-10-31T08:19:04.576Z,50.73
2017-10-31T08:21:32.068Z,50.81
2017-10-31T08:23:59.558Z,48.60
2017-10-31T08:26:27.078Z,49.06
2017-10-31T08:28:54.596Z,50.35
2017-10-31T08:31:22.163Z,50.79
2017-10-31T08:33:49.671Z,50.04
2017-10-31T08:36:17.177Z,46.17
2017-10-31T08:38:44.677Z,44.97
2017-10-31T08:41:12.178Z,48.02
2017-10-31T08:43:39.669Z,52.43
2017-10-31T08:46:07.177Z,55.79
2017-10-31T08:48:34.679Z,57.50
2017-10-31T08:51:02.179Z,56.67
2017-10-31T08:53:29.673Z,52.84
2017-10-31T08:55:57.154Z,51.24
2017-10-31T08:58:31.261Z,48.24
2017-10-31T09:00:58.773Z,44.64
2017-10-31T09:03:26.278Z,42.66
2017-10-31T09:05:53.789Z,43.98
2017-10-31T09:08:21.293Z,46.23
2017-10-31T09:10:48.777Z,50.78
2017-10-31T09:13:16.356Z,44.75
2017-10-31T09:15:43.864Z,41.71
2017-10-31T09:18:11.358Z,45.04
2017-10-31T09:20:38.850Z,43.91
2017-10-31T09:23:06.364Z,50.22
2017-10-31T09:25:33.875Z,47.85
2017-10-31T09:28:01.389Z,46.64
2017-10-31T09:30:28.961Z,46.51
2017-10-31T09:32:56.449Z,51.36
2017-10-31T09:35:23.978Z,48.41
2017-10-31T09:37:51.496Z,51.54
2017-10-31T09:40:19.007Z,52.80
2017-10-31T09:42:46.511Z,54.95
2017-10-31T09:45:14.038Z,53.11
2017-10-31T09:47:41.546Z,53.05
2017-10-31T09:50:09.047Z,49.51
2017-10-31T09:52:36.533Z,51.30
2017-10-31T09:55:04.057Z,53.30
2017-10-31T09:57:31.657Z,50.85
2017-10-31T09:59:59.197Z,52.46
2017-10-31T10:02:26.738Z,49.99
2017-10-31T10:04:54.241Z,50.92
2017-10-31T10:07:21.758Z,43.33
2017-10-31T10:09:49.266Z,40.55
2017-10-31T10:12:16.777Z,37.47
2017-10-31T10:14:44.405Z,44.90
2017-10-31T10:17:11.971Z,41.08
2017-10-31T10:19:39.471Z,36.74
2017-10-31T10:22:07.002Z,36.11
2017-10-31T10:24:34.556Z,30.93
2017-10-31T10:27:02.060Z,39.22
2017-10-31T10:29:29.646Z,37.46
2017-10-31T10:31:57.153Z,34.81
2017-10-31T10:34:24.658Z,32.37
2017-10-31T10:36:52.167Z,33.10
2017-10-31T10:39:20.676Z,32.59
2017-10-31T10:41:48.189Z,33.36
2017-10-31T10:44:15.829Z,33.04
2017-10-31T10:46:43.341Z,33.28
2017-10-31T10:49:10.848Z,30.33
2017-10-31T10:51:38.374Z,33.86
2017-10-31T10:54:05.878Z,33.01
2017-10-31T10:56:33.393Z,31.32
2017-10-31T10:59:00.940Z,29.06
2017-10-31T11:01:28.434Z,31.01
2017-10-31T11:03:55.986Z,31.47
2017-10-31T11:06:23.520Z,34.99
2017-10-31T11:08:51.043Z,31.47
2017-10-31T11:11:18.553Z,32.59
2017-10-31T11:13:46.055Z,33.01
2017-10-31T11:16:13.573Z,33.59
2017-10-31T11:18:41.123Z,33.42
2017-10-31T11:21:08.651Z,31.55
2017-10-31T11:23:36.172Z,32.30
2017-10-31T11:26:03.693Z,33.67
2017-10-31T11:28:31.212Z,33.02
2017-10-31T11:30:58.713Z,34.37
2017-10-31T11:33:26.223Z,36.23
2017-10-31T11:35:53.772Z,35.35
2017-10-31T11:38:21.267Z,33.29
2017-10-31T11:40:48.777Z,31.63
2017-10-31T11:43:16.302Z,32.44
2017-10-31T11:45:43.817Z,35.43
2017-10-31T11:48:11.693Z,37.04
2017-10-31T11:50:39.192Z,40.37
2017-10-31T11:53:06.719Z,46.35
2017-10-31T11:55:34.221Z,47.53
2017-10-31T11:58:01.761Z,48.91
2017-10-31T12:00:29.332Z,46.90
2017-10-31T12:02:56.837Z,48.59
2017-10-31T12:05:24.449Z,50.28
2017-10-31T12:07:52.909Z,50.17
2017-10-31T12:10:20.404Z,45.81
2017-10-31T12:12:47.934Z,48.08
2017-10-31T12:15:15.463Z,49.72
2017-10-31T12:17:43.066Z,50.42
2017-10-31T12:20:10.569Z,48.34
2017-10-31T12:22:38.108Z,47.38
2017-10-31T12:25:05.625Z,45.17
2017-10-31T12:27:33.111Z,41.72
2017-10-31T12:30:00.622Z,46.53
2017-10-31T12:32:28.126Z,51.93
2017-10-31T12:34:55.639Z,52.19
2017-10-31T12:37:23.143Z,54.03
2017-10-31T12:39:50.647Z,49.05
2017-10-31T12:42:18.147Z,51.50
2017-10-31T12:44:45.647Z,51.96
2017-10-31T12:47:13.159Z,52.44
2017-10-31T12:49:40.666Z,53.64
2017-10-31T12:52:08.189Z,54.65
2017-10-31T12:54:35.685Z,48.54
2017-10-31T12:57:03.245Z,43.25
2017-10-31T12:59:30.743Z,43.54
2017-10-31T13:01:58.243Z,44.79
2017-10-31T13:04:25.742Z,45.93
2017-10-31T13:06:53.270Z,43.35
2017-10-31T13:09:20.781Z,41.64
2017-10-31T13:11:48.290Z,40.23
2017-10-31T13:14:15.813Z,40.89
2017-10-31T13:16:43.325Z,41.30
2017-10-31T13:19:10.859Z,41.78
2017-10-31T13:21:38.393Z,43.18
2017-10-31T13:24:05.941Z,44.44
2017-10-31T13:26:34.354Z,41.00
2017-10-31T13:29:02.800Z,43.53
2017-10-31T13:31:31.130Z,46.55
2017-10-31T13:33:59.503Z,45.40
2017-10-31T13:36:27.610Z,43.72
2017-10-31T13:38:56.022Z,41.84
2017-10-31T13:41:24.526Z,43.82
2017-10-31T13:43:52.951Z,42.54
2017-10-31T13:46:20.509Z,43.64
2017-10-31T13:48:48.195Z,42.41
2017-10-31T13:51:16.659Z,42.53
2017-10-31T13:53:44.196Z,41.19
2017-10-31T13:56:11.729Z,38.25
2017-10-31T13:58:39.391Z,42.07
2017-10-31T14:01:07.088Z,41.05
2017-10-31T14:03:34.813Z,39.57
2017-10-31T14:06:03.193Z,41.89
2017-10-31T14:08:31.686Z,39.65
2017-10-31T14:10:59.763Z,40.46
2017-10-31T14:13:27.322Z,42.65
2017-10-31T14:15:54.918Z,43.88
2017-10-31T14:18:22.485Z,44.28
2017-10-31T14:20:50.717Z,45.48
2017-10-31T14:23:18.290Z,47.55
2017-10-31T14:25:45.851Z,47.84
2017-10-31T14:28:13.424Z,51.03
2017-10-31T14:30:40.978Z,49.28
2017-10-31T14:33:08.551Z,53.24
2017-10-31T14:35:36.125Z,54.81
2017-10-31T14:38:03.666Z,54.17
2017-10-31T14:40:31.215Z,54.66
2017-10-31T14:42:58.748Z,56.60
2017-10-31T14:45:26.291Z,58.22
2017-10-31T14:47:53.836Z,60.10
2017-10-31T14:50:21.498Z,61.09
2017-10-31T14:52:49.039Z,62.10
2017-10-31T14:55:16.747Z,62.25
2017-10-31T14:57:44.289Z,65.48
2017-10-31T15:00:11.843Z,66.31
2017-10-31T15:02:39.539Z,66.94
2017-10-31T15:05:07.206Z,68.11
2017-10-31T15:07:34.738Z,68.73
2017-10-31T15:10:02.284Z,67.65
2017-10-31T15:12:29.849Z,68.98
2017-10-31T15:14:57.408Z,70.24
2017-10-31T15:17:24.946Z,70.45
2017-10-31T15:19:52.504Z,74.02
2017-10-31T15:22:20.073Z,72.95
2017-10-31T15:24:47.649Z,73.46
2017-10-31T15:27:15.231Z,74.15
2017-10-31T15:29:42.787Z,75.01
2017-10-31T15:32:10.505Z,75.93
2017-10-31T15:34:38.066Z,76.51
2017-10-31T15:37:05.671Z,76.86
2017-10-31T15:39:33.211Z,77.09
2017-10-31T15:42:00.745Z,78.16
2017-10-31T15:44:28.282Z,80.05
2017-10-31T15:46:55.862Z,80.46
2017-10-31T15:49:23.405Z,79.63
2017-10-31T15:51:50.945Z,81.98
2017-10-31T15:54:18.522Z,82.25
2017-10-31T15:56:46.079Z,82.71
2017-10-31T15:59:13.603Z,82.20
2017-10-31T16:01:41.218Z,80.75
2017-10-31T16:04:08.887Z,80.30
2017-10-31T16:06:36.452Z,80.57
2017-10-31T16:09:04.032Z,81.90
2017-10-31T16:11:31.606Z,83.28
2017-10-31T16:13:59.256Z,83.39
2017-10-31T16:16:26.801Z,83.73
2017-10-31T16:18:54.361Z,85.22
2017-10-31T16:21:21.997Z,85.43
2017-10-31T16:23:49.541Z,85.33
2017-10-31T16:26:17.096Z,84.79
2017-10-31T16:28:45.845Z,85.74
2017-10-31T16:31:13.409Z,85.75
2017-10-31T16:33:40.974Z,84.94
2017-10-31T16:36:08.505Z,85.69
2017-10-31T16:38:36.045Z,86.99
2017-10-31T16:41:03.588Z,87.98
2017-10-31T16:43:31.145Z,88.52
2017-10-31T16:45:58.677Z,88.50
2017-10-31T16:48:26.220Z,89.36
2017-10-31T16:50:53.833Z,89.72
2017-10-31T16:53:21.417Z,90.25
2017-10-31T16:55:48.986Z,90.27
2017-10-31T16:58:16.538Z,90.33
2017-10-31T17:00:44.107Z,90.70
2017-10-31T17:03:11.870Z,90.83
2017-10-31T17:05:39.446Z,90.69
2017-10-31T17:08:07.043Z,90.55
2017-10-31T17:10:34.652Z,91.49
2017-10-31T17:13:02.204Z,91.48
2017-10-31T17:15:29.782Z,92.54
2017-10-31T17:17:57.361Z,92.54
2017-10-31T17:20:24.927Z,92.20
2017-10-31T17:22:52.453Z,92.62
2017-10-31T17:25:20.106Z,92.17
2017-10-31T17:27:47.650Z,91.98
2017-10-31T17:30:15.193Z,92.32
2017-10-31T17:32:42.737Z,92.11
2017-10-31T17:35:10.283Z,92.28
2017-10-31T17:37:37.829Z,92.84
2017-10-31T17:40:05.369Z,93.11
2017-10-31T17:42:33.013Z,92.88
2017-10-31T17:45:00.689Z,91.94
2017-10-31T17:47:28.250Z,92.30
2017-10-31T17:49:55.854Z,92.18
2017-10-31T17:52:23.396Z,92.87
2017-10-31T17:54:50.944Z,93.90
2017-10-31T17:57:18.506Z,94.66
2017-10-31T17:59:46.130Z,94.53
2017-10-31T18:02:13.754Z,93.91
2017-10-31T18:04:41.413Z,94.29
2017-10-31T18:07:08.952Z,94.81
2017-10-31T18:09:36.501Z,94.67
2017-10-31T18:12:04.133Z,94.80
2017-10-31T18:14:31.675Z,94.89
2017-10-31T18:16:59.200Z,94.14
2017-10-31T18:19:26.756Z,94.26
2017-10-31T18:21:54.307Z,94.07
2017-10-31T18:24:21.845Z,94.39
2017-10-31T18:26:49.427Z,94.70
2017-10-31T18:29:16.983Z,95.67
2017-10-31T18:31:44.567Z,95.51
2017-10-31T18:34:12.112Z,95.97
2017-10-31T18:36:39.715Z,96.04
2017-10-31T18:39:07.307Z,95.46
2017-10-31T18:41:34.856Z,95.42
2017-10-31T18:44:02.414Z,96.24
2017-10-31T18:46:29.977Z,96.16
2017-10-31T18:48:57.508Z,95.94
2017-10-31T18:51:25.073Z,96.15
2017-10-31T18:53:52.622Z,96.10
2017-10-31T18:56:20.154Z,96.32
2017-10-31T18:58:47.682Z,95.88
2017-10-31T19:01:15.218Z,94.98
2017-10-31T19:03:42.778Z,94.56
2017-10-31T19:06:10.338Z,95.02
2017-10-31T19:08:37.885Z,94.79
2017-10-31T19:11:05.553Z,94.95
2017-10-31T19:13:33.095Z,95.29
2017-10-31T19:16:00.643Z,95.07
2017-10-31T19:18:28.218Z,95.71
2017-10-31T19:20:55.753Z,96.13
2017-10-31T19:23:23.399Z,96.43
2017-10-31T19:25:50.926Z,96.25
2017-10-31T19:28:18.467Z,96.33
2017-10-31T19:30:46.022Z,95.76
2017-10-31T19:33:13.563Z,94.54
2017-10-31T19:35:41.129Z,93.80
2017-10-31T19:38:08.676Z,94.15
2017-10-31T19:40:36.218Z,93.72
2017-10-31T19:43:03.765Z,93.54
2017-10-31T19:45:31.430Z,92.92
2017-10-31T19:47:58.985Z,92.25
2017-10-31T19:50:26.558Z,92.73
2017-10-31T19:52:54.131Z,92.81
2017-10-31T19:55:21.673Z,93.32
2017-10-31T19:57:49.252Z,93.09
2017-10-31T20:00:16.802Z,93.24
2017-10-31T20:02:44.349Z,94.13
2017-10-31T20:05:11.910Z,94.86
2017-10-31T20:07:39.445Z,94.80
2017-10-31T20:10:06.976Z,95.69
2017-10-31T20:12:34.515Z,96.06
2017-10-31T20:15:02.070Z,96.09
2017-10-31T20:17:29.615Z,96.12
2017-10-31T20:19:57.173Z,96.04
2017-10-31T20:22:24.722Z,95.16
2017-10-31T20:24:52.270Z,94.92
2017-10-31T20:27:19.834Z,94.96
2017-10-31T20:29:47.406Z,95.64
2017-10-31T20:32:14.972Z,96.33
2017-10-31T20:34:42.539Z,96.79
2017-10-31T20:37:10.110Z,96.62
2017-10-31T20:39:37.673Z,95.83
2017-10-31T20:42:05.800Z,95.24
2017-10-31T20:44:33.394Z,94.08
2017-10-31T20:47:00.931Z,94.16
2017-10-31T20:49:28.477Z,93.96
2017-10-31T20:51:56.027Z,93.79
2017-10-31T20:54:23.627Z,93.18
2017-10-31T20:56:51.195Z,93.07
2017-10-31T20:59:18.741Z,92.36
2017-10-31T21:01:46.270Z,93.18
2017-10-31T21:04:13.918Z,93.25
2017-10-31T21:06:41.477Z,94.54
2017-10-31T21:09:09.028Z,95.76
2017-10-31T21:11:36.741Z,95.94
2017-10-31T21:14:04.281Z,95.41
2017-10-31T21:16:31.834Z,94.79
2017-10-31T21:18:59.519Z,95.03
2017-10-31T21:21:27.080Z,95.62
2017-10-31T21:23:54.634Z,95.73
2017-10-31T21:26:22.167Z,95.61
2017-10-31T21:28:49.755Z,96.25
2017-10-31T21:31:17.288Z,96.43
2017-10-31T21:33:44.850Z,96.00
2017-10-31T21:36:12.403Z,95.68
2017-10-31T21:38:39.959Z,96.37
2017-10-31T21:41:07.489Z,96.63
2017-10-31T21:43:35.036Z,96.72
2017-10-31T21:46:02.578Z,97.10
2017-10-31T21:48:30.128Z,97.07
2017-10-31T21:50:57.659Z,97.12
2017-10-31T21:53:25.209Z,96.67
2017-10-31T21:55:52.767Z,96.73
2017-10-31T21:58:20.322Z,96.79
2017-10-31T22:00:47.874Z,96.15
2017-10-31T22:03:15.410Z,95.28
2017-10-31T22:05:42.954Z,95.35
2017-10-31T22:08:10.492Z,96.09
2017-10-31T22:10:38.155Z,95.87
2017-10-31T22:13:05.745Z,95.92
2017-10-31T22:15:33.289Z,96.40
2017-10-31T22:18:00.839Z,96.29
2017-10-31T22:20:28.380Z,95.94
2017-10-31T22:22:55.933Z,96.42
2017-10-31T22:25:23.482Z,96.95
2017-10-31T22:27:51.017Z,97.25
2017-10-31T22:30:18.553Z,97.35
2017-10-31T22:32:46.101Z,97.28
2017-10-31T22:35:13.657Z,97.48
2017-10-31T22:37:41.254Z,97.12
2017-10-31T22:40:08.788Z,96.28
2017-10-31T22:42:36.339Z,95.51
2017-10-31T22:45:03.895Z,95.09
2017-10-31T22:47:31.597Z,95.35
2017-10-31T22:49:59.147Z,95.56
2017-10-31T22:52:26.723Z,96.17
2017-10-31T22:54:54.290Z,95.77
2017-10-31T22:57:22.683Z,94.97
2017-10-31T22:59:50.249Z,94.51
2017-10-31T23:02:17.912Z,94.64
2017-10-31T23:04:45.455Z,94.97
2017-10-31T23:07:12.986Z,94.34
2017-10-31T23:09:40.542Z,94.23
2017-10-31T23:12:08.092Z,93.61
2017-10-31T23:14:35.686Z,93.26
2017-10-31T23:17:03.234Z,94.00
2017-10-31T23:19:30.787Z,93.94
2017-10-31T23:21:58.318Z,94.04
2017-10-31T23:24:25.878Z,95.17
2017-10-31T23:26:53.429Z,96.03
2017-10-31T23:29:20.990Z,96.46
2017-10-31T23:31:48.541Z,96.72
2017-10-31T23:34:16.079Z,96.41
2017-10-31T23:36:43.621Z,97.16
2017-10-31T23:39:11.164Z,97.40
2017-10-31T23:41:38.716Z,97.11
2017-10-31T23:44:06.259Z,96.41
2017-10-31T23:46:33.845Z,96.71
2017-10-31T23:49:01.402Z,96.99
2017-10-31T23:51:28.931Z,97.24
2017-10-31T23:53:56.497Z,97.48
2017-10-31T23:56:24.046Z,97.60
2017-10-31T23:58:51.600Z,97.90
